Time;durP1;ratioP1;P1;durP2;ratioP2;P2;SDS_P1;SDS_P2;PMS_P1;PMS_P2;Temp;Humidity;BMP_temperature;BMP_pressure;BME280_temperature;BME280_humidity;BME280_pressure;Samples;Min_cycle;Max_cycle;Signal;HPM_P1;HPM_P2
2022/03/12 00:01:42;;;;;;;26.40;13.63;;;;;;;-2.32;58.26;100048.03;5021899;28;20209;-88
2022/03/12 00:04:07;;;;;;;24.90;13.07;;;;;;;0.38;58.08;100517.41;5023579;28;20591;-87
2022/03/12 00:06:42;;;;;;;24.97;12.07;;;;;;;-2.28;57.68;100069.06;5021277;28;20210;-87
2022/03/12 00:09:07;;;;;;;26.70;11.70;;;;;;;-3.05;58.90;99973.47;5022736;28;20626;-87
2022/03/12 00:11:35;;;;;;;20.73;10.60;;;;;;;-2.01;59.11;100171.09;5021979;28;20420;-89
2022/03/12 00:14:03;;;;;;;19.92;9.80;;;;;;;-3.92;59.59;99828.91;5022151;28;20167;-86
2022/03/12 00:16:29;;;;;;;20.27;10.48;;;;;;;-4.11;60.25;99829.25;5027423;28;20179;-86
2022/03/12 00:18:58;;;;;;;23.58;10.38;;;;;;;-4.26;60.96;99831.84;5031208;28;20208;-86
2022/03/12 00:21:25;;;;;;;22.38;10.70;;;;;;;-1.69;61.89;100267.13;5028722;28;20728;-84
2022/03/12 00:23:53;;;;;;;22.73;11.77;;;;;;;-2.03;62.79;100230.47;5030226;28;20190;-84
2022/03/12 00:26:22;;;;;;;22.92;11.35;;;;;;;-2.27;64.15;100207.16;5027636;28;20270;-84
2022/03/12 00:28:50;;;;;;;23.92;12.00;;;;;;;-0.67;65.12;100493.25;5030164;28;20254;-86
2022/03/12 00:31:16;;;;;;;24.77;12.50;;;;;;;-0.90;66.40;100481.59;5041623;28;20210;-88
2022/03/12 00:33:41;;;;;;;26.07;12.70;;;;;;;-2.68;66.80;100160.63;5024830;28;20527;-85
2022/03/12 00:36:07;;;;;;;24.13;12.10;;;;;;;-3.54;66.87;99986.31;5023086;28;20159;-86
2022/03/12 00:38:33;;;;;;;19.70;10.77;;;;;;;-3.97;68.08;99965.13;5047912;28;20265;-86
2022/03/12 00:41:01;;;;;;;17.40;9.23;;;;;;;-4.31;68.35;99902.16;5030728;28;20289;-86
2022/03/12 00:43:27;;;;;;;19.38;10.05;;;;;;;-0.86;70.32;100506.94;5036606;28;20232;-86
2022/03/12 00:45:52;;;;;;;18.67;9.87;;;;;;;-4.41;71.51;99904.34;5041713;28;20166;-86
2022/03/12 00:48:18;;;;;;;18.53;9.20;;;;;;;-3.18;73.36;100115.59;5044175;28;20225;-86
2022/03/12 00:50:43;;;;;;;23.57;10.77;;;;;;;-2.67;74.90;100205.41;5041899;28;20169;-87
2022/03/12 00:53:09;;;;;;;20.30;9.63;;;;;;;-0.86;76.92;100521.88;5036807;28;20556;-86
2022/03/12 00:55:35;;;;;;;19.57;10.93;;;;;;;-4.23;84.11;99992.81;5034434;28;20166;-86
2022/03/12 00:58:01;;;;;;;26.95;12.05;;;;;;;-1.53;88.00;100443.38;5037792;28;20717;-86
2022/03/12 01:00:26;;;;;;;24.73;12.80;;;;;;;-3.64;91.05;100110.63;5034875;28;20170;-86
2022/03/12 01:02:52;;;;;;;29.27;14.17;;;;;;;-5.49;94.03;99800.19;5037020;28;20192;-85
2022/03/12 01:05:23;;;;;;;28.03;12.47;;;;;;;-4.49;96.63;99966.84;5043137;28;20280;-85
2022/03/12 01:07:48;;;;;;;29.98;14.25;;;;;;;-5.76;97.15;99730.56;5033519;28;20608;-85
2022/03/12 01:10:14;;;;;;;31.23;14.70;;;;;;;-4.48;99.00;99960.34;5033040;28;20168;-86
2022/03/12 01:12:43;;;;;;;31.07;14.27;;;;;;;-4.33;99.23;99976.81;5034185;28;20688;-86
2022/03/12 01:15:10;;;;;;;23.48;12.88;;;;;;;-3.13;100.00;100183.84;5055249;28;20143;-86
2022/03/12 01:17:35;;;;;;;26.70;12.63;;;;;;;-4.44;100.00;100015.19;5046091;28;20205;-86
2022/03/12 01:20:02;;;;;;;23.50;11.17;;;;;;;-5.83;100.00;99779.00;5035591;28;20170;-86
2022/03/12 01:22:29;;;;;;;26.67;13.25;;;;;;;-5.45;100.00;99846.69;5037238;28;20158;-85
2022/03/12 01:24:54;;;;;;;26.05;12.25;;;;;;;-3.17;100.00;100253.53;5039367;28;20185;-87
2022/03/12 01:27:20;;;;;;;22.73;11.90;;;;;;;-5.18;100.00;99914.59;5049533;28;20194;-86
2022/03/12 01:29:45;;;;;;;23.07;10.93;;;;;;;-4.55;100.00;100040.28;5033924;28;20173;-87
2022/03/12 01:32:12;;;;;;;20.77;9.83;;;;;;;-5.11;100.00;99982.06;5030602;28;20189;-86
2022/03/12 01:34:38;;;;;;;22.15;11.07;;;;;;;-4.82;100.00;100039.66;5032808;28;20177;-85
2022/03/12 01:37:04;;;;;;;24.93;11.47;;;;;;;-2.32;100.00;100526.50;5031872;28;20221;-87
2022/03/12 01:39:29;;;;;;;22.95;10.65;;;;;;;-6.27;100.00;99865.16;5031586;28;20177;-87
2022/03/12 01:41:55;;;;;;;23.00;11.13;;;;;;;-2.59;100.00;100446.63;5033357;28;20171;-87
2022/03/12 01:44:21;;;;;;;23.20;11.50;;;;;;;-6.46;100.00;99762.78;5034353;28;20166;-86
2022/03/12 01:46:49;;;;;;;24.80;11.98;;;;;;;-4.61;100.00;100093.91;5036061;28;20573;-87
2022/03/12 01:49:21;;;;;;;24.77;11.48;;;;;;;-4.85;100.00;100057.47;5033689;28;20174;-86
2022/03/12 01:51:50;;;;;;;23.33;11.60;;;;;;;-5.79;100.00;99864.88;5036319;28;20177;-86
2022/03/12 01:54:22;;;;;;;25.38;11.77;;;;;;;-4.52;100.00;100107.31;5038043;28;20185;-86
2022/03/12 01:56:48;;;;;;;26.50;12.88;;;;;;;-4.86;100.00;100089.38;5037266;28;20162;-86
2022/03/12 01:59:14;;;;;;;25.17;11.35;;;;;;;-4.84;100.00;100102.81;5039221;28;20604;-86
2022/03/12 02:01:39;;;;;;;24.43;12.20;;;;;;;-4.98;100.00;100063.31;5038729;28;20176;-86
2022/03/12 02:04:10;;;;;;;22.83;11.27;;;;;;;-4.97;100.00;100079.91;5038634;28;20162;-86
2022/03/12 02:06:41;;;;;;;26.38;11.73;;;;;;;-2.42;100.00;100541.09;5038795;28;20197;-87
2022/03/12 02:09:10;;;;;;;23.67;11.52;;;;;;;-3.54;100.00;100303.00;5036613;28;20165;-86
2022/03/12 02:11:38;;;;;;;25.33;11.25;;;;;;;-7.40;100.00;99648.53;5050438;28;20174;-86
2022/03/12 02:14:12;;;;;;;25.25;11.25;;;;;;;-4.12;100.00;100230.41;5035498;28;20252;-86
2022/03/12 02:16:43;;;;;;;23.02;10.95;;;;;;;-6.13;100.00;99885.75;5035732;28;20188;-86
2022/03/12 02:19:08;;;;;;;26.40;11.93;;;;;;;-6.52;100.00;99807.28;5034042;28;20182;-86
2022/03/12 02:21:40;;;;;;;26.03;11.57;;;;;;;-5.98;100.00;99896.44;5034856;28;20228;-86
2022/03/12 02:24:17;;;;;;;25.88;11.68;;;;;;;-6.77;100.00;99787.91;5036413;28;20170;-86
2022/03/12 02:26:44;;;;;;;26.20;12.30;;;;;;;-4.18;100.00;100226.56;5035661;28;20255;-86
2022/03/12 02:29:19;;;;;;;26.30;11.75;;;;;;;-6.06;100.00;99902.09;5034191;28;20532;-86
2022/03/12 02:31:58;;;;;;;27.05;11.07;;;;;;;-4.64;100.00;100142.09;5033391;28;20178;-86
2022/03/12 02:34:39;;;;;;;31.52;13.13;;;;;;;-3.72;99.98;100268.81;5034656;28;20173;-86
2022/03/12 02:37:05;;;;;;;29.70;12.68;;;;;;;-4.55;99.52;100151.44;5033170;28;20347;-86
2022/03/12 02:39:34;;;;;;;26.02;11.70;;;;;;;-3.32;99.37;100351.72;5033619;28;20170;-86
2022/03/12 02:42:00;;;;;;;26.25;11.80;;;;;;;-3.58;98.43;100300.91;5036077;28;20287;-87
2022/03/12 02:44:28;;;;;;;23.20;9.67;;;;;;;-6.50;97.85;99785.28;5035167;28;20725;-86
2022/03/12 02:47:11;;;;;;;27.13;11.50;;;;;;;-6.25;97.03;99804.63;5035674;28;20286;-86
2022/03/12 02:49:39;;;;;;;28.67;11.00;;;;;;;-2.09;97.30;100539.88;5035056;28;20577;-86
2022/03/12 02:52:05;;;;;;;27.33;11.50;;;;;;;-3.85;96.66;100246.78;5034967;28;20626;-86
2022/03/12 02:54:31;;;;;;;27.55;11.00;;;;;;;-5.61;95.94;99917.19;5034381;28;20166;-86
2022/03/12 02:56:57;;;;;;;27.20;11.90;;;;;;;-3.09;96.28;100397.28;5034555;28;20166;-86
2022/03/12 02:59:22;;;;;;;24.93;10.73;;;;;;;-6.56;95.63;99810.06;5035453;28;20691;-86
2022/03/12 03:01:50;;;;;;;25.80;10.93;;;;;;;-6.37;95.72;99800.78;5036765;28;20559;-86
2022/03/12 03:04:18;;;;;;;28.38;11.38;;;;;;;-6.24;95.58;99849.16;5033355;28;20240;-86
2022/03/12 03:06:43;;;;;;;26.98;11.77;;;;;;;-5.82;95.16;99919.66;5034215;28;20197;-86
2022/03/12 03:09:09;;;;;;;26.93;11.77;;;;;;;-4.48;94.86;100158.84;5034057;28;20774;-87
2022/03/12 03:11:35;;;;;;;26.50;10.93;;;;;;;-3.19;94.76;100383.72;5033848;28;20189;-85
2022/03/12 03:14:01;;;;;;;26.50;10.70;;;;;;;-6.13;94.10;99866.03;5034232;28;20158;-87
2022/03/12 03:16:28;;;;;;;22.63;8.60;;;;;;;-2.22;94.45;100529.28;5034036;28;20169;-87
2022/03/12 03:18:54;;;;;;;27.55;10.45;;;;;;;-4.56;93.49;100139.78;5035661;28;20216;-86
2022/03/12 03:21:23;;;;;;;24.60;10.43;;;;;;;-3.48;93.88;100328.44;5041491;28;20170;-86
2022/03/12 03:23:49;;;;;;;23.30;9.32;;;;;;;-3.75;93.80;100293.19;5034283;28;20245;-87
2022/03/12 03:26:21;;;;;;;22.37;9.33;;;;;;;-5.34;92.86;99970.31;5033594;28;20209;-86
2022/03/12 03:28:46;;;;;;;26.02;12.00;;;;;;;-4.12;93.47;100240.31;5032546;28;20949;-87
2022/03/12 03:31:12;;;;;;;22.77;9.70;;;;;;;-5.11;93.10;100036.34;5034703;28;20190;-86
2022/03/12 03:33:37;;;;;;;22.80;9.73;;;;;;;-3.83;92.91;100262.66;5058134;28;20161;-86
2022/03/12 03:36:03;;;;;;;22.67;9.57;;;;;;;-4.40;92.50;100149.81;5048505;28;20172;-87
2022/03/12 03:38:29;;;;;;;21.98;9.40;;;;;;;-5.87;91.31;99913.34;5037396;28;20324;-86
2022/03/12 03:40:54;;;;;;;20.27;9.10;;;;;;;-2.20;91.64;100531.94;5033300;28;20254;-87
2022/03/12 03:43:22;;;;;;;18.77;8.53;;;;;;;-6.28;90.90;99797.78;5031743;28;20546;-87
2022/03/12 03:45:51;;;;;;;22.10;8.88;;;;;;;-3.61;89.71;100270.88;5033624;28;20170;-86
2022/03/12 03:48:19;;;;;;;22.00;8.93;;;;;;;-2.83;88.70;100427.41;5033477;28;20228;-86
2022/03/12 03:50:46;;;;;;;19.48;8.02;;;;;;;-3.20;86.68;100376.97;5033592;28;20170;-86
2022/03/12 03:53:15;;;;;;;18.23;8.25;;;;;;;-3.99;85.49;100219.63;5048182;28;20194;-85
2022/03/12 03:55:41;;;;;;;16.48;7.93;;;;;;;-3.03;84.65;100392.13;5068989;28;20170;-86
2022/03/12 03:58:07;;;;;;;17.60;8.63;;;;;;;-3.15;82.79;100361.03;5035547;28;20245;-86
2022/03/12 04:00:32;;;;;;;17.77;8.10;;;;;;;-3.45;81.65;100288.31;5032270;28;20622;-87
2022/03/12 04:03:02;;;;;;;15.97;7.87;;;;;;;-2.04;81.52;100541.25;5033904;28;20174;-87
2022/03/12 04:05:34;;;;;;;18.15;8.00;;;;;;;-5.47;79.43;99899.00;5048822;28;20224;-87
2022/03/12 04:08:00;;;;;;;19.55;7.95;;;;;;;-5.37;77.73;99928.91;5032562;28;20260;-87
2022/03/12 04:10:27;;;;;;;17.80;7.97;;;;;;;-5.06;75.54;99994.94;5031596;28;20614;-87
2022/03/12 04:12:53;;;;;;;16.15;7.90;;;;;;;-4.61;75.09;100086.50;5033035;28;20174;-87
2022/03/12 04:15:20;;;;;;;15.50;7.47;;;;;;;-3.87;74.65;100215.16;5031569;28;20231;-87
2022/03/12 04:17:46;;;;;;;16.25;7.30;;;;;;;-4.78;73.59;100067.31;5032660;28;20158;-86
2022/03/12 04:20:16;;;;;;;17.67;7.80;;;;;;;-4.75;74.04;100093.94;5032365;28;20257;-87
2022/03/12 04:22:42;;;;;;;18.23;7.75;;;;;;;-2.60;74.22;100467.13;5031331;28;20178;-87
2022/03/12 04:25:12;;;;;;;15.43;7.63;;;;;;;-3.95;73.84;100199.44;5032809;28;20161;-86
2022/03/12 04:27:42;;;;;;;14.00;7.43;;;;;;;-3.36;74.47;100334.78;5031240;28;20281;-87
2022/03/12 04:30:08;;;;;;;18.25;8.82;;;;;;;-3.51;73.52;100313.25;5033393;28;20166;-86
2022/03/12 04:32:34;;;;;;;15.57;7.65;;;;;;;-4.65;72.54;100123.06;5039778;28;20535;-85
2022/03/12 04:34:59;;;;;;;20.07;8.17;;;;;;;-4.96;72.12;100065.25;5036720;28;20177;-87
2022/03/12 04:37:25;;;;;;;19.33;8.67;;;;;;;-2.83;72.70;100447.22;5047809;28;20743;-87
2022/03/12 04:39:50;;;;;;;16.10;8.37;;;;;;;-3.98;71.99;100220.50;5032434;28;20173;-85
2022/03/12 04:42:21;;;;;;;15.60;7.70;;;;;;;-1.99;71.50;100569.94;5033153;28;20162;-87
2022/03/12 04:44:47;;;;;;;18.58;7.97;;;;;;;-3.71;71.11;100273.06;5031334;28;20170;-87
2022/03/12 04:47:13;;;;;;;15.65;7.15;;;;;;;-3.33;71.13;100384.63;5034025;28;20197;-86
2022/03/12 04:49:39;;;;;;;17.77;8.20;;;;;;;-3.95;71.41;100230.72;5032507;28;20301;-86
2022/03/12 04:52:05;;;;;;;20.83;9.33;;;;;;;-3.50;70.86;100326.50;5030850;28;20173;-87
2022/03/12 04:54:32;;;;;;;18.93;7.73;;;;;;;-1.97;68.92;100578.41;5031883;28;20223;-87
2022/03/12 04:56:58;;;;;;;33.85;14.57;;;;;;;-4.70;67.62;100134.00;5031825;28;20161;-87
2022/03/12 04:59:23;;;;;;;32.47;13.18;;;;;;;-4.82;67.09;100075.13;5031996;28;20252;-86
2022/03/12 05:01:49;;;;;;;25.30;10.13;;;;;;;-3.70;68.31;100294.59;5033956;28;20162;-86
2022/03/12 05:04:15;;;;;;;48.57;16.97;;;;;;;-3.62;68.13;100313.66;5035415;28;20166;-87
2022/03/12 05:06:40;;;;;;;28.50;11.60;;;;;;;-2.83;67.89;100427.41;5033830;28;20230;-87
2022/03/12 05:09:06;;;;;;;35.37;15.00;;;;;;;-3.94;68.49;100225.06;5047206;28;20257;-86
2022/03/12 05:11:36;;;;;;;32.90;12.37;;;;;;;-3.53;68.03;100299.84;5030845;28;20173;-86
2022/03/12 05:14:02;;;;;;;29.88;11.40;;;;;;;-2.73;67.77;100429.34;5030776;28;20168;-87
2022/03/12 05:16:28;;;;;;;115.97;35.33;;;;;;;-4.38;67.25;100141.88;5034577;28;20224;-87
2022/03/12 05:18:56;;;;;;;73.83;31.23;;;;;;;-4.38;69.54;100202.75;5047645;28;20166;-87
2022/03/12 05:21:21;;;;;;;220.57;66.18;;;;;;;-5.57;70.81;99978.44;5032315;28;20166;-86
2022/03/12 05:23:47;;;;;;;142.57;52.30;;;;;;;-4.14;71.81;100257.41;5030998;28;20531;-87
2022/03/12 05:26:12;;;;;;;172.93;50.17;;;;;;;-5.73;74.92;100019.31;5030721;28;20169;-87
2022/03/12 05:28:40;;;;;;;167.17;50.33;;;;;;;-3.75;78.97;100364.91;5036443;28;20245;-87
2022/03/12 05:31:08;;;;;;;120.22;42.70;;;;;;;-4.93;83.24;100188.16;5036065;28;20170;-86
2022/03/12 05:33:34;;;;;;;104.75;42.50;;;;;;;-5.46;85.40;100135.03;5035580;28;20173;-87
2022/03/12 05:36:01;;;;;;;74.57;31.95;;;;;;;-2.82;86.82;100584.38;5034279;28;20174;-87
2022/03/12 05:38:37;;;;;;;103.95;43.40;;;;;;;-2.96;88.58;100558.03;5035086;28;20230;-87
2022/03/12 05:41:11;;;;;;;112.00;45.08;;;;;;;-3.79;89.47;100430.47;5050778;28;20170;-87
2022/03/12 05:43:46;;;;;;;88.10;36.38;;;;;;;-3.26;90.53;100496.00;5035635;28;20173;-87
2022/03/12 05:46:17;;;;;;;53.15;26.45;;;;;;;-2.68;91.77;100621.50;5033801;28;20181;-87
2022/03/12 05:48:45;;;;;;;127.40;57.88;;;;;;;-4.83;92.47;100255.16;5034408;28;20166;-87
2022/03/12 05:51:10;;;;;;;136.55;53.92;;;;;;;-3.00;93.54;100578.22;5044908;28;20178;-87
2022/03/12 05:53:36;;;;;;;129.87;52.77;;;;;;;-2.62;93.85;100642.06;5065071;28;20180;-88
2022/03/12 05:56:03;;;;;;;94.57;41.47;;;;;;;-4.02;94.94;100426.06;5039399;28;20167;-87
2022/03/12 05:58:35;;;;;;;48.10;21.17;;;;;;;-6.16;94.94;100074.19;5034816;28;20201;-88
2022/03/12 06:01:01;;;;;;;57.58;23.75;;;;;;;-4.86;97.10;100339.63;5036238;28;20192;-88
2022/03/12 06:03:27;;;;;;;61.37;25.10;;;;;;;-5.06;97.44;100249.16;5039510;28;20166;-87
2022/03/12 06:05:58;;;;;;;63.80;26.07;;;;;;;-6.55;97.13;100028.47;5042255;28;20174;-87
2022/03/12 06:08:26;;;;;;;62.20;24.63;;;;;;;-3.98;99.92;100493.34;5047096;28;20662;-86
2022/03/12 06:10:54;;;;;;;72.43;28.98;;;;;;;-2.99;100.00;100629.50;5042302;28;20657;-86
2022/03/12 06:13:23;;;;;;;52.47;21.40;;;;;;;-2.78;100.00;100634.47;5059420;28;20701;-86
2022/03/12 06:15:52;;;;;;;47.55;19.63;;;;;;;-4.87;100.00;100265.41;5052570;28;20185;-87
2022/03/12 06:18:18;;;;;;;61.17;23.75;;;;;;;-2.56;100.00;100632.84;5048669;28;20165;-86
2022/03/12 06:20:50;;;;;;;41.97;18.45;;;;;;;-2.55;100.00;100650.34;5048622;28;20154;-87
2022/03/12 06:23:15;;;;;;;62.78;31.02;;;;;;;-3.53;98.24;100403.75;5042886;28;20174;-88
2022/03/12 06:25:41;;;;;;;44.13;20.63;;;;;;;-4.73;97.22;100233.31;5036832;28;20248;-87
2022/03/12 06:28:07;;;;;;;35.28;15.95;;;;;;;-2.02;97.48;100687.78;5035412;28;20610;-88
2022/03/12 06:30:32;;;;;;;31.83;12.70;;;;;;;-4.86;97.81;100235.03;5036350;28;20174;-87
2022/03/12 06:32:58;;;;;;;46.47;16.50;;;;;;;-4.22;99.31;100335.66;5035207;28;20546;-87
2022/03/12 06:35:27;;;;;;;60.20;23.23;;;;;;;-2.05;99.45;100652.69;5035622;28;20693;-87
2022/03/12 06:37:53;;;;;;;43.10;15.27;;;;;;;-1.81;98.00;100660.38;5051649;28;20230;-87
2022/03/12 06:40:20;;;;;;;47.17;20.97;;;;;;;-3.86;96.25;100294.47;5053176;28;20569;-87
2022/03/12 06:42:47;;;;;;;42.53;17.13;;;;;;;-4.40;96.68;100158.13;5035522;28;20162;-86
2022/03/12 06:45:16;;;;;;;48.90;21.35;;;;;;;-2.63;95.95;100442.00;5033649;28;20265;-87
2022/03/12 06:47:46;;;;;;;40.97;18.25;;;;;;;-1.69;95.96;100666.72;5034278;28;20601;-86
2022/03/12 06:50:17;;;;;;;50.30;20.20;;;;;;;-1.01;95.34;100676.78;5035196;28;20162;-86
2022/03/12 06:52:47;;;;;;;35.03;13.13;;;;;;;-1.10;94.39;100704.72;5035464;28;20207;-89
2022/03/12 06:55:12;;;;;;;42.22;18.25;;;;;;;-2.09;93.89;100515.06;5034335;28;20174;-87
2022/03/12 06:57:38;;;;;;;73.10;27.30;;;;;;;-1.03;93.19;100673.25;5034597;28;20185;-87
2022/03/12 07:00:05;;;;;;;30.27;13.37;;;;;;;-2.60;92.19;100416.00;5050537;28;20162;-87
2022/03/12 07:02:31;;;;;;;26.92;11.43;;;;;;;-3.19;93.45;100300.41;5049014;28;20205;-86
2022/03/12 07:04:56;;;;;;;29.47;12.23;;;;;;;-3.76;94.47;100293.88;5053525;28;20193;-87
2022/03/12 07:07:21;;;;;;;41.07;16.43;;;;;;;-3.47;93.14;100284.78;5044365;28;20208;-86
2022/03/12 07:09:47;;;;;;;30.70;13.70;;;;;;;-3.35;91.08;100254.00;5043521;28;20170;-87
2022/03/12 07:12:12;;;;;;;40.30;18.67;;;;;;;-0.86;91.08;100694.94;5038515;28;20241;-88
2022/03/12 07:14:38;;;;;;;82.23;30.73;;;;;;;-2.31;90.18;100384.50;5037191;28;20256;-89
2022/03/12 07:17:04;;;;;;;47.83;20.60;;;;;;;-0.83;87.16;100584.31;5045081;28;20225;-89
2022/03/12 07:19:29;;;;;;;25.00;11.93;;;;;;;-2.64;86.79;100286.63;5045109;28;20170;-88
2022/03/12 07:21:54;;;;;;;31.07;14.87;;;;;;;-3.31;86.57;100209.94;5048543;28;20170;-88
2022/03/12 07:24:20;;;;;;;37.57;16.90;;;;;;;-2.34;86.02;100359.34;5037739;28;20640;-88
2022/03/12 07:26:45;;;;;;;37.30;16.23;;;;;;;-2.16;84.77;100346.44;5035313;28;20262;-89
2022/03/12 07:29:12;;;;;;;43.20;17.87;;;;;;;-1.10;80.78;100419.00;5036333;28;20635;-88
2022/03/12 07:31:38;;;;;;;39.97;15.48;;;;;;;-2.24;79.88;100295.16;5052317;28;20585;-89
2022/03/12 07:34:05;;;;;;;56.95;24.35;;;;;;;-0.72;81.52;100504.31;5037418;28;20178;-88
2022/03/12 07:36:31;;;;;;;39.38;15.52;;;;;;;0.18;80.83;100710.28;5049714;28;20193;-88
2022/03/12 07:39:03;;;;;;;103.50;28.33;;;;;;;0.40;80.08;100705.22;5046825;28;20182;-88
2022/03/12 07:41:29;;;;;;;40.08;16.48;;;;;;;-1.58;78.21;100323.75;5036171;28;20257;-89
2022/03/12 07:43:54;;;;;;;77.35;23.80;;;;;;;-1.89;82.64;100371.72;5035227;28;20182;-88
2022/03/12 07:46:21;;;;;;;28.63;12.23;;;;;;;-1.76;81.65;100420.19;5035502;28;20208;-88
2022/03/12 07:48:46;;;;;;;42.67;16.13;;;;;;;-1.92;81.04;100413.56;5035040;28;20170;-88
2022/03/12 07:51:12;;;;;;;57.70;25.57;;;;;;;-3.11;83.57;100208.06;5033353;28;20193;-89
2022/03/12 07:53:38;;;;;;;100.40;29.90;;;;;;;-2.30;82.76;100294.50;5033673;28;20323;-89
2022/03/12 07:56:04;;;;;;;69.50;29.77;;;;;;;0.11;80.16;100608.31;5035591;28;20220;-89
2022/03/12 07:58:30;;;;;;;77.18;27.20;;;;;;;1.07;76.70;100710.50;5034925;28;20177;-87
2022/03/12 08:00:58;;;;;;;62.13;24.53;;;;;;;-1.18;76.64;100423.16;5034765;28;20170;-90
2022/03/12 08:03:24;;;;;;;61.15;27.02;;;;;;;0.69;77.55;100690.75;5032751;28;20265;-87
2022/03/12 08:05:50;;;;;;;37.65;15.95;;;;;;;0.62;77.91;100692.47;5050204;28;20308;-87
2022/03/12 08:08:17;;;;;;;37.67;15.88;;;;;;;-1.75;77.71;100312.75;5033087;28;20193;-88
2022/03/12 08:13:30;;;;;;;45.80;20.48;;;;;;;1.72;69.30;100657.19;5052007;28;20185;-88
2022/03/12 08:15:57;;;;;;;34.87;14.47;;;;;;;1.14;66.79;100685.47;5046399;28;20252;-88
2022/03/12 08:18:23;;;;;;;44.47;19.17;;;;;;;-2.89;68.38;100032.03;5034501;28;20171;-88
2022/03/12 08:20:49;;;;;;;29.47;13.27;;;;;;;1.04;68.92;100695.22;5034325;28;20170;-87
2022/03/12 08:23:15;;;;;;;55.13;24.43;;;;;;;-1.48;66.85;100244.53;5032744;28;20642;-88
2022/03/12 08:25:41;;;;;;;43.45;17.00;;;;;;;-2.35;68.31;100161.72;5033414;28;20413;-87
2022/03/12 08:28:07;;;;;;;72.07;33.10;;;;;;;0.97;69.65;100640.50;5043584;28;20677;-88
2022/03/12 08:30:34;;;;;;;38.77;18.23;;;;;;;-1.09;67.17;100240.28;5035235;28;20631;-89
2022/03/12 08:33:00;;;;;;;45.42;18.85;;;;;;;0.17;65.64;100462.94;5035368;28;20400;-87
2022/03/12 08:35:26;;;;;;;26.67;12.47;;;;;;;0.65;61.21;100564.13;5032754;28;20174;-87
2022/03/12 08:37:54;;;;;;;42.63;19.13;;;;;;;-0.78;62.08;100333.75;5048724;28;20230;-87
2022/03/12 08:40:25;;;;;;;42.70;18.73;;;;;;;2.28;60.34;100697.63;5031936;28;20494;-88
2022/03/12 08:42:54;;;;;;;63.03;29.93;;;;;;;1.87;59.78;100712.72;5048694;28;20499;-88
2022/03/12 08:45:31;;;;;;;32.10;16.07;;;;;;;-0.84;57.24;100136.78;5047400;28;20413;-88
2022/03/12 08:47:57;;;;;;;55.67;25.70;;;;;;;1.84;52.28;100696.56;5032446;28;20558;-88
2022/03/12 08:50:32;;;;;;;48.40;23.43;;;;;;;0.12;51.03;100424.25;5033966;28;20488;-88
2022/03/12 08:52:58;;;;;;;97.93;39.13;;;;;;;2.02;51.72;100723.31;5050516;28;20424;-88
2022/03/12 08:55:27;;;;;;;33.83;14.47;;;;;;;-1.70;52.60;100084.19;5033577;28;20919;-88
2022/03/12 08:57:53;;;;;;;34.47;16.17;;;;;;;0.74;53.49;100429.59;5035542;28;20413;-87
2022/03/12 09:00:20;;;;;;;33.90;16.50;;;;;;;0.02;51.68;100249.84;5034615;28;20408;-86
2022/03/12 09:02:48;;;;;;;45.07;20.63;;;;;;;1.47;49.74;100393.56;5050187;28;20503;-88
2022/03/12 09:05:14;;;;;;;27.13;13.77;;;;;;;3.28;49.77;100724.72;5049442;28;20401;-89
2022/03/12 09:07:42;;;;;;;38.40;19.83;;;;;;;0.89;49.85;100229.19;5046525;28;20441;-88
2022/03/12 09:10:10;;;;;;;45.27;21.57;;;;;;;1.12;45.84;100322.88;5017862;28;20488;-88
2022/03/12 09:12:36;;;;;;;24.93;13.10;;;;;;;-1.11;46.73;99953.59;5038819;28;20482;-88
2022/03/12 09:15:02;;;;;;;18.17;9.10;;;;;;;2.29;45.73;100497.06;5032035;28;20417;-90
2022/03/12 09:17:27;;;;;;;41.20;19.50;;;;;;;4.18;45.26;100724.72;5042923;28;20241;-90
2022/03/12 09:19:52;;;;;;;33.87;16.60;;;;;;;3.75;45.29;100734.09;5023432;28;20328;-90
2022/03/12 09:22:18;;;;;;;25.17;11.87;;;;;;;2.65;47.58;100579.56;5027267;28;20257;-90
2022/03/12 09:24:43;;;;;;;32.70;15.77;;;;;;;2.58;45.88;100632.22;5042674;28;20580;-90
2022/03/12 09:27:09;;;;;;;32.03;16.07;;;;;;;1.44;47.36;100418.19;5041723;28;20206;-91
2022/03/12 09:29:35;;;;;;;38.23;9.83;;;;;;;0.93;46.25;100306.03;5026615;28;20165;-91
2022/03/12 09:32:03;;;;;;;18.03;9.50;;;;;;;2.53;44.25;100423.47;5035443;28;20174;-90
2022/03/12 09:34:29;;;;;;;25.80;12.97;;;;;;;3.80;44.86;100710.34;5038587;28;20428;-90
2022/03/12 09:36:55;;;;;;;17.50;9.33;;;;;;;3.11;42.79;100608.78;5038181;28;20967;-90
2022/03/12 09:39:20;;;;;;;31.83;13.00;;;;;;;3.74;41.27;100724.81;5038189;28;20173;-90
2022/03/12 09:41:47;;;;;;;26.63;11.90;;;;;;;4.17;41.52;100705.38;5036276;28;20220;-89
2022/03/12 09:44:13;;;;;;;15.57;8.57;;;;;;;4.73;40.82;100699.47;5036398;28;20173;-90
2022/03/12 09:46:39;;;;;;;29.43;15.33;;;;;;;3.54;40.20;100365.00;5034111;28;20467;-90
2022/03/12 09:49:05;;;;;;;15.03;8.03;;;;;;;4.02;38.86;100507.72;5035723;28;20405;-90
2022/03/12 09:51:31;;;;;;;16.27;9.87;;;;;;;4.21;39.45;100616.31;5049368;28;20197;-89
2022/03/12 09:54:00;;;;;;;16.67;8.33;;;;;;;2.00;39.04;100195.44;5054238;28;20168;-89
2022/03/12 09:56:26;;;;;;;800.33;245.63;;;;;;;4.23;38.17;100458.59;5052556;28;20500;-89
2022/03/12 09:58:52;;;;;;;106.83;30.50;;;;;;;5.62;37.56;100713.84;5031903;28;20990;-89
2022/03/12 10:01:17;;;;;;;44.07;18.97;;;;;;;5.22;36.66;100733.06;5033641;28;20289;-89
2022/03/12 10:03:43;;;;;;;16.50;10.10;;;;;;;4.16;35.23;100508.19;5038417;28;20162;-90
2022/03/12 10:06:10;;;;;;;13.47;7.80;;;;;;;2.46;35.31;100350.31;5033458;28;20212;-89
2022/03/12 10:08:36;;;;;;;17.87;9.53;;;;;;;4.70;36.11;100715.16;5035830;28;20610;-90
2022/03/12 10:11:01;;;;;;;28.57;13.27;;;;;;;3.09;37.23;100468.59;5032551;28;20421;-89
2022/03/12 10:13:27;;;;;;;28.57;15.77;;;;;;;2.89;37.48;100313.38;5033572;28;20684;-89
2022/03/12 10:15:52;;;;;;;27.03;14.07;;;;;;;3.92;37.79;100635.44;5036801;28;20169;-87
2022/03/12 10:18:20;;;;;;;37.47;16.07;;;;;;;2.47;37.46;100365.44;5043115;28;20169;-89
2022/03/12 10:20:46;;;;;;;22.17;10.50;;;;;;;4.55;38.28;100706.28;5052420;28;20174;-90
2022/03/12 10:23:11;;;;;;;16.17;8.30;;;;;;;4.03;37.36;100558.00;5058420;28;20412;-91
2022/03/12 10:25:38;;;;;;;17.00;8.93;;;;;;;5.69;36.37;100706.06;5055394;28;20158;-88
2022/03/12 10:28:10;;;;;;;15.53;8.10;;;;;;;4.21;36.94;100478.50;5046297;28;20209;-92
2022/03/12 10:30:36;;;;;;;21.60;10.53;;;;;;;3.61;36.37;100346.41;5050576;28;20420;-91
2022/03/12 10:33:02;;;;;;;285.67;71.47;;;;;;;4.42;36.32;100460.25;5057362;28;20447;-89
2022/03/12 10:35:34;;;;;;;31.13;14.17;;;;;;;4.40;35.78;100393.19;5070740;28;20170;-89
2022/03/12 10:38:00;;;;;;;34.40;15.23;;;;;;;4.81;36.45;100505.34;5008448;28;20253;-89
2022/03/12 10:40:30;;;;;;;30.50;15.47;;;;;;;4.11;37.29;100424.22;5014382;28;20520;-89
2022/03/12 10:43:05;;;;;;;52.30;21.67;;;;;;;1.67;37.25;100043.56;5014577;28;20433;-89
2022/03/12 10:45:43;;;;;;;72.40;28.83;;;;;;;4.06;40.59;100688.53;5031648;28;20443;-90
2022/03/12 10:48:09;;;;;;;40.20;16.17;;;;;;;1.88;40.82;100244.25;5031545;28;20512;-89
2022/03/12 10:50:46;;;;;;;41.37;20.67;;;;;;;4.47;41.68;100686.31;5030725;28;20433;-89
2022/03/12 10:53:17;;;;;;;39.90;18.50;;;;;;;4.39;41.76;100679.75;5033005;28;20492;-90
2022/03/12 10:55:50;;;;;;;65.73;29.13;;;;;;;3.35;42.86;100535.97;5031600;28;20421;-90
2022/03/12 10:58:24;;;;;;;62.03;25.70;;;;;;;1.47;45.06;100267.94;5017494;28;21015;-90
2022/03/12 11:01:01;;;;;;;46.23;21.50;;;;;;;2.10;46.64;100393.69;5015238;28;20429;-90
2022/03/12 11:03:30;;;;;;;43.13;20.90;;;;;;;1.45;47.04;100332.66;5019433;28;20432;-90
2022/03/12 11:05:56;;;;;;;36.13;17.17;;;;;;;0.34;46.58;100103.56;5029841;28;20425;-88
2022/03/12 11:08:32;;;;;;;49.47;22.53;;;;;;;1.60;46.74;100315.72;5018885;28;20488;-90
2022/03/12 11:11:06;;;;;;;23.70;12.87;;;;;;;3.65;47.70;100678.94;5032974;28;20488;-89
2022/03/12 11:13:49;;;;;;;15.70;8.50;;;;;;;4.09;46.56;100716.34;5033002;28;20432;-90
2022/03/12 11:16:32;;;;;;;26.13;13.63;;;;;;;4.60;46.10;100674.09;5038842;28;20461;-88